sensor_id;sensor_type;location;lat;lon;timestamp;P1;durP1;ratioP1;P2;durP2;ratioP2
36501;SDS011;25393;46.108;3.390;2023-06-10T00:00:47;8.15;;;5.65;;
36501;SDS011;25393;46.108;3.390;2023-06-10T00:03:13;6.32;;;5.75;;
36501;SDS011;25393;46.108;3.390;2023-06-10T00:05:40;9.18;;;5.28;;
36501;SDS011;25393;46.108;3.390;2023-06-10T00:08:07;7.03;;;5.38;;
36501;SDS011;25393;46.108;3.390;2023-06-10T00:10:34;6.47;;;5.63;;
36501;SDS011;25393;46.108;3.390;2023-06-10T00:13:05;9.75;;;5.28;;
36501;SDS011;25393;46.108;3.390;2023-06-10T00:15:36;9.23;;;6.45;;
36501;SDS011;25393;46.108;3.390;2023-06-10T00:18:03;8.77;;;5.95;;
36501;SDS011;25393;46.108;3.390;2023-06-10T00:20:30;8.95;;;5.82;;
36501;SDS011;25393;46.108;3.390;2023-06-10T00:22:57;6.05;;;5.55;;
36501;SDS011;25393;46.108;3.390;2023-06-10T00:25:25;9.45;;;5.80;;
36501;SDS011;25393;46.108;3.390;2023-06-10T00:27:52;6.85;;;6.13;;
36501;SDS011;25393;46.108;3.390;2023-06-10T00:30:18;5.85;;;5.30;;
36501;SDS011;25393;46.108;3.390;2023-06-10T00:32:45;8.85;;;6.07;;
36501;SDS011;25393;46.108;3.390;2023-06-10T00:35:12;6.72;;;6.00;;
36501;SDS011;25393;46.108;3.390;2023-06-10T00:37:38;6.85;;;5.72;;
36501;SDS011;25393;46.108;3.390;2023-06-10T00:40:05;9.80;;;6.20;;
36501;SDS011;25393;46.108;3.390;2023-06-10T00:42:35;12.75;;;6.30;;
36501;SDS011;25393;46.108;3.390;2023-06-10T00:45:02;6.57;;;5.97;;
36501;SDS011;25393;46.108;3.390;2023-06-10T00:47:29;9.73;;;6.15;;
36501;SDS011;25393;46.108;3.390;2023-06-10T00:49:57;6.55;;;5.90;;
36501;SDS011;25393;46.108;3.390;2023-06-10T00:52:25;11.15;;;6.05;;
36501;SDS011;25393;46.108;3.390;2023-06-10T00:54:54;7.05;;;6.45;;
36501;SDS011;25393;46.108;3.390;2023-06-10T00:57:21;8.20;;;5.60;;
36501;SDS011;25393;46.108;3.390;2023-06-10T00:59:48;9.90;;;5.85;;
36501;SDS011;25393;46.108;3.390;2023-06-10T01:02:15;6.13;;;5.57;;
36501;SDS011;25393;46.108;3.390;2023-06-10T01:04:42;8.70;;;5.95;;
36501;SDS011;25393;46.108;3.390;2023-06-10T01:07:14;7.78;;;5.65;;
36501;SDS011;25393;46.108;3.390;2023-06-10T01:09:45;7.70;;;6.05;;
36501;SDS011;25393;46.108;3.390;2023-06-10T01:12:26;8.85;;;6.13;;
36501;SDS011;25393;46.108;3.390;2023-06-10T01:15:00;7.50;;;5.75;;
36501;SDS011;25393;46.108;3.390;2023-06-10T01:17:28;11.43;;;6.00;;
36501;SDS011;25393;46.108;3.390;2023-06-10T01:19:55;6.78;;;5.97;;
36501;SDS011;25393;46.108;3.390;2023-06-10T01:22:26;8.38;;;6.50;;
36501;SDS011;25393;46.108;3.390;2023-06-10T01:24:58;8.15;;;6.25;;
36501;SDS011;25393;46.108;3.390;2023-06-10T01:27:29;7.47;;;6.75;;
36501;SDS011;25393;46.108;3.390;2023-06-10T01:30:03;7.47;;;6.00;;
36501;SDS011;25393;46.108;3.390;2023-06-10T01:32:37;7.55;;;6.85;;
36501;SDS011;25393;46.108;3.390;2023-06-10T01:35:09;10.40;;;5.70;;
36501;SDS011;25393;46.108;3.390;2023-06-10T01:37:40;8.70;;;5.78;;
36501;SDS011;25393;46.108;3.390;2023-06-10T01:40:09;5.82;;;5.25;;
36501;SDS011;25393;46.108;3.390;2023-06-10T01:42:37;9.05;;;5.72;;
36501;SDS011;25393;46.108;3.390;2023-06-10T01:45:04;6.20;;;5.65;;
36501;SDS011;25393;46.108;3.390;2023-06-10T01:47:32;7.70;;;6.75;;
36501;SDS011;25393;46.108;3.390;2023-06-10T01:49:59;7.63;;;5.82;;
36501;SDS011;25393;46.108;3.390;2023-06-10T01:52:25;7.93;;;5.75;;
36501;SDS011;25393;46.108;3.390;2023-06-10T01:54:52;7.00;;;5.50;;
36501;SDS011;25393;46.108;3.390;2023-06-10T01:57:19;6.93;;;6.35;;
36501;SDS011;25393;46.108;3.390;2023-06-10T01:59:45;9.52;;;6.43;;
36501;SDS011;25393;46.108;3.390;2023-06-10T02:02:12;8.07;;;6.30;;
36501;SDS011;25393;46.108;3.390;2023-06-10T02:04:39;7.15;;;6.10;;
36501;SDS011;25393;46.108;3.390;2023-06-10T02:07:06;6.82;;;6.15;;
36501;SDS011;25393;46.108;3.390;2023-06-10T02:09:32;10.40;;;6.30;;
36501;SDS011;25393;46.108;3.390;2023-06-10T02:12:04;6.35;;;5.47;;
36501;SDS011;25393;46.108;3.390;2023-06-10T02:14:32;18.08;;;6.20;;
36501;SDS011;25393;46.108;3.390;2023-06-10T02:16:59;6.85;;;5.85;;
36501;SDS011;25393;46.108;3.390;2023-06-10T02:19:27;10.18;;;5.63;;
36501;SDS011;25393;46.108;3.390;2023-06-10T02:21:54;6.75;;;6.07;;
36501;SDS011;25393;46.108;3.390;2023-06-10T02:24:21;11.05;;;5.97;;
36501;SDS011;25393;46.108;3.390;2023-06-10T02:26:48;12.05;;;5.65;;
36501;SDS011;25393;46.108;3.390;2023-06-10T02:29:14;7.90;;;5.50;;
36501;SDS011;25393;46.108;3.390;2023-06-10T02:31:41;7.65;;;5.30;;
36501;SDS011;25393;46.108;3.390;2023-06-10T02:34:08;5.90;;;5.03;;
36501;SDS011;25393;46.108;3.390;2023-06-10T02:36:35;5.80;;;5.30;;
36501;SDS011;25393;46.108;3.390;2023-06-10T02:39:02;12.80;;;5.40;;
36501;SDS011;25393;46.108;3.390;2023-06-10T02:41:30;8.40;;;5.68;;
36501;SDS011;25393;46.108;3.390;2023-06-10T02:43:57;6.35;;;5.75;;
36501;SDS011;25393;46.108;3.390;2023-06-10T02:46:24;10.98;;;5.55;;
36501;SDS011;25393;46.108;3.390;2023-06-10T02:48:50;7.07;;;5.30;;
36501;SDS011;25393;46.108;3.390;2023-06-10T02:51:18;10.15;;;5.78;;
36501;SDS011;25393;46.108;3.390;2023-06-10T02:53:45;5.85;;;5.30;;
36501;SDS011;25393;46.108;3.390;2023-06-10T02:56:11;9.90;;;5.32;;
36501;SDS011;25393;46.108;3.390;2023-06-10T02:58:38;5.75;;;5.25;;
36501;SDS011;25393;46.108;3.390;2023-06-10T03:01:05;5.57;;;4.95;;
36501;SDS011;25393;46.108;3.390;2023-06-10T03:03:32;8.80;;;5.20;;
36501;SDS011;25393;46.108;3.390;2023-06-10T03:06:00;11.70;;;5.72;;
36501;SDS011;25393;46.108;3.390;2023-06-10T03:08:27;5.90;;;5.40;;
36501;SDS011;25393;46.108;3.390;2023-06-10T03:10:53;6.07;;;5.60;;
36501;SDS011;25393;46.108;3.390;2023-06-10T03:13:20;6.10;;;5.65;;
36501;SDS011;25393;46.108;3.390;2023-06-10T03:15:48;7.47;;;5.55;;
36501;SDS011;25393;46.108;3.390;2023-06-10T03:18:14;5.72;;;5.28;;
36501;SDS011;25393;46.108;3.390;2023-06-10T03:20:41;12.88;;;5.57;;
36501;SDS011;25393;46.108;3.390;2023-06-10T03:23:08;7.90;;;6.30;;
36501;SDS011;25393;46.108;3.390;2023-06-10T03:25:36;11.80;;;5.30;;
36501;SDS011;25393;46.108;3.390;2023-06-10T03:28:02;18.10;;;5.60;;
36501;SDS011;25393;46.108;3.390;2023-06-10T03:30:29;6.28;;;5.68;;
36501;SDS011;25393;46.108;3.390;2023-06-10T03:32:56;10.98;;;5.55;;
36501;SDS011;25393;46.108;3.390;2023-06-10T03:35:22;7.28;;;5.63;;
36501;SDS011;25393;46.108;3.390;2023-06-10T03:37:49;6.47;;;5.93;;
36501;SDS011;25393;46.108;3.390;2023-06-10T03:40:16;6.68;;;5.95;;
36501;SDS011;25393;46.108;3.390;2023-06-10T03:42:42;10.45;;;6.28;;
36501;SDS011;25393;46.108;3.390;2023-06-10T03:45:10;6.97;;;5.65;;
36501;SDS011;25393;46.108;3.390;2023-06-10T03:47:37;6.10;;;5.45;;
36501;SDS011;25393;46.108;3.390;2023-06-10T03:50:04;11.60;;;6.20;;
36501;SDS011;25393;46.108;3.390;2023-06-10T03:52:31;11.38;;;5.70;;
36501;SDS011;25393;46.108;3.390;2023-06-10T03:54:58;9.23;;;6.18;;
36501;SDS011;25393;46.108;3.390;2023-06-10T03:57:24;10.73;;;5.93;;
36501;SDS011;25393;46.108;3.390;2023-06-10T03:59:51;9.00;;;5.88;;
36501;SDS011;25393;46.108;3.390;2023-06-10T04:02:18;10.90;;;5.88;;
36501;SDS011;25393;46.108;3.390;2023-06-10T04:04:45;10.07;;;6.47;;
36501;SDS011;25393;46.108;3.390;2023-06-10T04:07:12;6.28;;;5.68;;
36501;SDS011;25393;46.108;3.390;2023-06-10T04:09:40;7.60;;;6.47;;
36501;SDS011;25393;46.108;3.390;2023-06-10T04:12:07;7.35;;;6.65;;
36501;SDS011;25393;46.108;3.390;2023-06-10T04:14:35;6.45;;;5.57;;
36501;SDS011;25393;46.108;3.390;2023-06-10T04:17:04;9.45;;;6.00;;
36501;SDS011;25393;46.108;3.390;2023-06-10T04:19:34;11.48;;;6.40;;
36501;SDS011;25393;46.108;3.390;2023-06-10T04:22:01;8.57;;;5.75;;
36501;SDS011;25393;46.108;3.390;2023-06-10T04:24:31;6.78;;;6.10;;
36501;SDS011;25393;46.108;3.390;2023-06-10T04:26:58;14.73;;;6.55;;
36501;SDS011;25393;46.108;3.390;2023-06-10T04:29:24;15.27;;;6.15;;
36501;SDS011;25393;46.108;3.390;2023-06-10T04:31:51;6.50;;;5.80;;
36501;SDS011;25393;46.108;3.390;2023-06-10T04:34:20;8.45;;;6.03;;
36501;SDS011;25393;46.108;3.390;2023-06-10T04:36:47;7.22;;;6.38;;
36501;SDS011;25393;46.108;3.390;2023-06-10T04:39:13;8.68;;;6.10;;
36501;SDS011;25393;46.108;3.390;2023-06-10T04:41:42;9.25;;;6.10;;
36501;SDS011;25393;46.108;3.390;2023-06-10T04:44:09;8.13;;;5.90;;
36501;SDS011;25393;46.108;3.390;2023-06-10T04:46:37;6.80;;;6.18;;
36501;SDS011;25393;46.108;3.390;2023-06-10T04:49:03;12.07;;;5.70;;
36501;SDS011;25393;46.108;3.390;2023-06-10T04:51:31;8.10;;;6.15;;
36501;SDS011;25393;46.108;3.390;2023-06-10T04:53:58;6.75;;;5.35;;
36501;SDS011;25393;46.108;3.390;2023-06-10T04:56:29;5.65;;;5.18;;
36501;SDS011;25393;46.108;3.390;2023-06-10T04:58:57;6.57;;;5.15;;
36501;SDS011;25393;46.108;3.390;2023-06-10T05:01:24;6.75;;;5.43;;
36501;SDS011;25393;46.108;3.390;2023-06-10T05:03:50;8.18;;;5.30;;
36501;SDS011;25393;46.108;3.390;2023-06-10T05:06:17;7.53;;;5.40;;
36501;SDS011;25393;46.108;3.390;2023-06-10T05:08:44;7.50;;;5.88;;
36501;SDS011;25393;46.108;3.390;2023-06-10T05:11:10;7.68;;;5.45;;
36501;SDS011;25393;46.108;3.390;2023-06-10T05:13:37;11.27;;;5.60;;
36501;SDS011;25393;46.108;3.390;2023-06-10T05:16:04;13.93;;;6.70;;
36501;SDS011;25393;46.108;3.390;2023-06-10T05:18:30;9.57;;;5.60;;
36501;SDS011;25393;46.108;3.390;2023-06-10T05:20:57;6.32;;;5.32;;
36501;SDS011;25393;46.108;3.390;2023-06-10T05:23:24;7.00;;;5.03;;
36501;SDS011;25393;46.108;3.390;2023-06-10T05:25:50;14.70;;;5.38;;
36501;SDS011;25393;46.108;3.390;2023-06-10T05:28:17;8.60;;;5.60;;
36501;SDS011;25393;46.108;3.390;2023-06-10T05:30:44;8.18;;;5.35;;
36501;SDS011;25393;46.108;3.390;2023-06-10T05:33:11;8.13;;;5.40;;
36501;SDS011;25393;46.108;3.390;2023-06-10T05:35:37;8.63;;;5.72;;
36501;SDS011;25393;46.108;3.390;2023-06-10T05:38:04;7.40;;;5.10;;
36501;SDS011;25393;46.108;3.390;2023-06-10T05:40:31;9.15;;;5.20;;
36501;SDS011;25393;46.108;3.390;2023-06-10T05:42:57;8.38;;;5.35;;
36501;SDS011;25393;46.108;3.390;2023-06-10T05:45:24;13.40;;;5.43;;
36501;SDS011;25393;46.108;3.390;2023-06-10T05:47:51;9.77;;;5.18;;
36501;SDS011;25393;46.108;3.390;2023-06-10T05:50:18;8.50;;;5.07;;
36501;SDS011;25393;46.108;3.390;2023-06-10T05:52:44;9.55;;;4.78;;
36501;SDS011;25393;46.108;3.390;2023-06-10T05:55:11;5.20;;;4.70;;
36501;SDS011;25393;46.108;3.390;2023-06-10T05:57:38;8.13;;;4.85;;
36501;SDS011;25393;46.108;3.390;2023-06-10T06:00:05;12.57;;;4.70;;
36501;SDS011;25393;46.108;3.390;2023-06-10T06:02:32;7.80;;;4.97;;
36501;SDS011;25393;46.108;3.390;2023-06-10T06:04:59;5.03;;;4.55;;
36501;SDS011;25393;46.108;3.390;2023-06-10T06:07:26;18.33;;;4.55;;
36501;SDS011;25393;46.108;3.390;2023-06-10T06:09:52;12.02;;;5.30;;
36501;SDS011;25393;46.108;3.390;2023-06-10T06:12:19;8.27;;;5.03;;
36501;SDS011;25393;46.108;3.390;2023-06-10T06:14:46;6.78;;;4.70;;
36501;SDS011;25393;46.108;3.390;2023-06-10T06:17:13;10.85;;;4.63;;
36501;SDS011;25393;46.108;3.390;2023-06-10T06:19:40;10.65;;;4.80;;
36501;SDS011;25393;46.108;3.390;2023-06-10T06:22:06;11.48;;;5.22;;
36501;SDS011;25393;46.108;3.390;2023-06-10T06:24:33;13.38;;;5.65;;
36501;SDS011;25393;46.108;3.390;2023-06-10T06:27:00;9.38;;;5.47;;
36501;SDS011;25393;46.108;3.390;2023-06-10T06:29:27;7.35;;;4.57;;
36501;SDS011;25393;46.108;3.390;2023-06-10T06:31:56;11.25;;;5.10;;
36501;SDS011;25393;46.108;3.390;2023-06-10T06:34:23;6.63;;;4.57;;
36501;SDS011;25393;46.108;3.390;2023-06-10T06:36:50;13.63;;;5.25;;
36501;SDS011;25393;46.108;3.390;2023-06-10T06:39:16;13.13;;;5.20;;
36501;SDS011;25393;46.108;3.390;2023-06-10T06:41:43;6.57;;;5.00;;
36501;SDS011;25393;46.108;3.390;2023-06-10T06:44:10;7.30;;;5.20;;
36501;SDS011;25393;46.108;3.390;2023-06-10T06:46:36;5.72;;;5.20;;
36501;SDS011;25393;46.108;3.390;2023-06-10T06:49:03;8.13;;;5.85;;
36501;SDS011;25393;46.108;3.390;2023-06-10T06:51:30;11.02;;;5.53;;
36501;SDS011;25393;46.108;3.390;2023-06-10T06:53:56;10.20;;;5.70;;
36501;SDS011;25393;46.108;3.390;2023-06-10T06:56:25;10.68;;;5.72;;
36501;SDS011;25393;46.108;3.390;2023-06-10T06:58:53;5.88;;;5.18;;
36501;SDS011;25393;46.108;3.390;2023-06-10T07:01:23;8.90;;;5.63;;
36501;SDS011;25393;46.108;3.390;2023-06-10T07:03:50;5.18;;;4.78;;
36501;SDS011;25393;46.108;3.390;2023-06-10T07:06:17;11.10;;;4.97;;
36501;SDS011;25393;46.108;3.390;2023-06-10T07:08:45;5.72;;;5.10;;
36501;SDS011;25393;46.108;3.390;2023-06-10T07:11:12;7.15;;;4.47;;
36501;SDS011;25393;46.108;3.390;2023-06-10T07:13:39;9.77;;;4.63;;
36501;SDS011;25393;46.108;3.390;2023-06-10T07:16:07;5.85;;;4.47;;
36501;SDS011;25393;46.108;3.390;2023-06-10T07:18:34;7.95;;;4.47;;
36501;SDS011;25393;46.108;3.390;2023-06-10T07:21:01;5.03;;;4.38;;
36501;SDS011;25393;46.108;3.390;2023-06-10T07:23:28;6.60;;;4.40;;
36501;SDS011;25393;46.108;3.390;2023-06-10T07:25:55;7.28;;;4.20;;
36501;SDS011;25393;46.108;3.390;2023-06-10T07:28:22;8.13;;;4.70;;
36501;SDS011;25393;46.108;3.390;2023-06-10T07:30:49;5.15;;;4.57;;
36501;SDS011;25393;46.108;3.390;2023-06-10T07:33:15;4.47;;;4.07;;
36501;SDS011;25393;46.108;3.390;2023-06-10T07:35:42;5.03;;;4.15;;
36501;SDS011;25393;46.108;3.390;2023-06-10T07:38:09;4.95;;;4.53;;
36501;SDS011;25393;46.108;3.390;2023-06-10T07:40:36;7.38;;;4.45;;
36501;SDS011;25393;46.108;3.390;2023-06-10T07:43:03;10.15;;;4.55;;
36501;SDS011;25393;46.108;3.390;2023-06-10T07:45:30;6.65;;;4.25;;
36501;SDS011;25393;46.108;3.390;2023-06-10T07:47:56;4.53;;;3.95;;
36501;SDS011;25393;46.108;3.390;2023-06-10T07:50:23;5.18;;;4.72;;
36501;SDS011;25393;46.108;3.390;2023-06-10T07:52:50;5.25;;;4.55;;
36501;SDS011;25393;46.108;3.390;2023-06-10T07:55:17;5.35;;;4.50;;
36501;SDS011;25393;46.108;3.390;2023-06-10T07:57:44;9.50;;;4.50;;
36501;SDS011;25393;46.108;3.390;2023-06-10T08:00:11;8.48;;;4.00;;
36501;SDS011;25393;46.108;3.390;2023-06-10T08:02:40;5.47;;;4.43;;
36501;SDS011;25393;46.108;3.390;2023-06-10T08:05:07;5.20;;;4.07;;
36501;SDS011;25393;46.108;3.390;2023-06-10T08:07:36;4.50;;;4.20;;
36501;SDS011;25393;46.108;3.390;2023-06-10T08:10:03;14.75;;;5.53;;
36501;SDS011;25393;46.108;3.390;2023-06-10T08:12:33;8.50;;;4.93;;
36501;SDS011;25393;46.108;3.390;2023-06-10T08:15:02;8.85;;;4.82;;
36501;SDS011;25393;46.108;3.390;2023-06-10T08:17:30;6.05;;;4.63;;
36501;SDS011;25393;46.108;3.390;2023-06-10T08:19:57;4.72;;;4.20;;
36501;SDS011;25393;46.108;3.390;2023-06-10T08:22:25;6.97;;;4.40;;
36501;SDS011;25393;46.108;3.390;2023-06-10T08:24:52;5.45;;;4.70;;
36501;SDS011;25393;46.108;3.390;2023-06-10T08:27:19;8.93;;;5.72;;
36501;SDS011;25393;46.108;3.390;2023-06-10T08:29:46;5.28;;;4.63;;
36501;SDS011;25393;46.108;3.390;2023-06-10T08:32:13;6.20;;;4.22;;
36501;SDS011;25393;46.108;3.390;2023-06-10T08:34:40;6.60;;;4.70;;
36501;SDS011;25393;46.108;3.390;2023-06-10T08:37:07;5.45;;;4.95;;
36501;SDS011;25393;46.108;3.390;2023-06-10T08:39:34;13.30;;;4.75;;
36501;SDS011;25393;46.108;3.390;2023-06-10T08:42:05;5.30;;;4.78;;
36501;SDS011;25393;46.108;3.390;2023-06-10T08:44:55;12.38;;;5.10;;
36501;SDS011;25393;46.108;3.390;2023-06-10T08:47:23;8.18;;;4.38;;
36501;SDS011;25393;46.108;3.390;2023-06-10T08:49:51;5.80;;;4.30;;
36501;SDS011;25393;46.108;3.390;2023-06-10T08:52:20;4.72;;;4.30;;
36501;SDS011;25393;46.108;3.390;2023-06-10T08:55:30;4.93;;;4.40;;
36501;SDS011;25393;46.108;3.390;2023-06-10T08:57:41;7.63;;;5.00;;
36501;SDS011;25393;46.108;3.390;2023-06-10T09:00:12;7.38;;;4.30;;
36501;SDS011;25393;46.108;3.390;2023-06-10T09:02:40;4.28;;;3.90;;
36501;SDS011;25393;46.108;3.390;2023-06-10T09:05:07;5.25;;;4.00;;
36501;SDS011;25393;46.108;3.390;2023-06-10T09:07:35;7.88;;;4.10;;
36501;SDS011;25393;46.108;3.390;2023-06-10T09:10:03;4.50;;;4.15;;
36501;SDS011;25393;46.108;3.390;2023-06-10T09:12:34;6.22;;;4.45;;
36501;SDS011;25393;46.108;3.390;2023-06-10T09:15:01;4.10;;;3.80;;
36501;SDS011;25393;46.108;3.390;2023-06-10T09:17:29;6.95;;;4.60;;
36501;SDS011;25393;46.108;3.390;2023-06-10T09:19:56;6.45;;;4.43;;
36501;SDS011;25393;46.108;3.390;2023-06-10T09:22:23;4.95;;;4.43;;
36501;SDS011;25393;46.108;3.390;2023-06-10T09:25:05;6.55;;;4.40;;
36501;SDS011;25393;46.108;3.390;2023-06-10T09:27:46;5.32;;;4.55;;
36501;SDS011;25393;46.108;3.390;2023-06-10T09:32:53;5.32;;;4.85;;
36501;SDS011;25393;46.108;3.390;2023-06-10T09:35:24;5.10;;;4.60;;
36501;SDS011;25393;46.108;3.390;2023-06-10T09:37:56;7.82;;;4.40;;
36501;SDS011;25393;46.108;3.390;2023-06-10T09:40:24;6.95;;;3.88;;
36501;SDS011;25393;46.108;3.390;2023-06-10T09:42:55;4.40;;;4.00;;
36501;SDS011;25393;46.108;3.390;2023-06-10T09:45:32;4.40;;;4.07;;
36501;SDS011;25393;46.108;3.390;2023-06-10T09:48:00;6.13;;;4.40;;
36501;SDS011;25393;46.108;3.390;2023-06-10T09:50:27;9.93;;;4.93;;
36501;SDS011;25393;46.108;3.390;2023-06-10T09:52:59;10.25;;;5.15;;
36501;SDS011;25393;46.108;3.390;2023-06-10T09:55:26;8.55;;;4.95;;
36501;SDS011;25393;46.108;3.390;2023-06-10T09:57:53;11.50;;;5.07;;
36501;SDS011;25393;46.108;3.390;2023-06-10T10:00:21;10.00;;;4.78;;
36501;SDS011;25393;46.108;3.390;2023-06-10T10:02:50;7.03;;;4.68;;
36501;SDS011;25393;46.108;3.390;2023-06-10T10:05:19;5.95;;;4.90;;
36501;SDS011;25393;46.108;3.390;2023-06-10T10:07:47;5.63;;;4.22;;
36501;SDS011;25393;46.108;3.390;2023-06-10T10:10:17;4.82;;;4.43;;
36501;SDS011;25393;46.108;3.390;2023-06-10T10:12:46;6.70;;;4.43;;
36501;SDS011;25393;46.108;3.390;2023-06-10T10:15:15;7.10;;;4.68;;
36501;SDS011;25393;46.108;3.390;2023-06-10T10:17:48;9.07;;;4.45;;
36501;SDS011;25393;46.108;3.390;2023-06-10T10:20:20;5.10;;;4.57;;
36501;SDS011;25393;46.108;3.390;2023-06-10T10:22:51;5.25;;;4.75;;
36501;SDS011;25393;46.108;3.390;2023-06-10T10:25:29;5.80;;;4.78;;
